Terminal Aerodrome Forecast
Issued by NWS

Home | Current Version | Previous Version | Text Only | Print | Product List | Glossary On
Versions: 1 2 3 4 5 6 7 8 9 10 11 12 13 14 15 16 17 18 19 20 21 22 23 24 25 26
000
FTUS44 KFWD 261736
TAFDAL
TAF
KDAL 261736Z 2618/2718 15008KT P6SM SCT050 BKN110
     FM262100 13008KT P6SM VCSH BKN050
     FM270000 07008KT P6SM VCSH OVC050
     FM270300 03007KT P6SM OVC050
     FM271200 03008KT P6SM SCT012 BKN025
      TEMPO 2712/2716 BKN012=

USA.gov is the U.S. government's official web portal to all federal, state and local government web resources and services.